Time;durP1;ratioP1;P1;durP2;ratioP2;P2;SDS_P1;SDS_P2;PMS_P1;PMS_P2;Temp;Humidity;BMP_temperature;BMP_pressure;BME280_temperature;BME280_humidity;BME280_pressure;Samples;Min_cycle;Max_cycle;Signal;HPM_P1;HPM_P2
2022/09/05 00:01:55;;;;;;;4.73;3.03;;;;;;;18.65;58.94;101150.19;4996776;28;20227;-81
2022/09/05 00:04:29;;;;;;;3.43;3.23;;;;;;;18.60;58.98;101156.59;4996843;28;20223;-80
2022/09/05 00:07:02;;;;;;;3.27;3.00;;;;;;;18.64;58.68;101168.78;4995151;28;20202;-81
2022/09/05 00:09:58;;;;;;;3.10;2.90;;;;;;;18.62;58.58;101184.69;4997249;28;20204;-81
2022/09/05 00:12:26;;;;;;;3.47;3.17;;;;;;;18.61;58.05;101196.22;4995362;28;20270;-80
2022/09/05 00:15:10;;;;;;;3.00;2.80;;;;;;;18.63;58.15;101204.94;4995450;28;20255;-80
2022/09/05 00:17:44;;;;;;;3.27;3.07;;;;;;;18.50;58.76;101198.41;4967103;28;20221;-80
2022/09/05 00:20:19;;;;;;;3.67;3.10;;;;;;;18.54;58.35;101192.06;4967689;28;20212;-80
2022/09/05 00:22:53;;;;;;;2.90;2.73;;;;;;;18.61;58.21;101196.22;4966608;29;20597;-81
2022/09/05 00:25:50;;;;;;;2.97;2.77;;;;;;;18.58;58.66;101195.47;4966761;28;20263;-81
2022/09/05 00:28:22;;;;;;;3.40;2.97;;;;;;;18.51;59.02;101183.41;4967130;29;20209;-81
2022/09/05 00:31:08;;;;;;;3.13;2.93;;;;;;;18.52;58.82;101178.06;4967137;29;20721;-80
2022/09/05 00:33:42;;;;;;;2.80;2.60;;;;;;;18.49;58.45;101186.09;4966748;28;20254;-80
2022/09/05 00:36:22;;;;;;;3.37;3.07;;;;;;;18.48;58.93;101184.41;4966185;29;20268;-80
2022/09/05 00:39:00;;;;;;;3.17;2.97;;;;;;;18.42;59.04;101180.22;4966648;29;20234;-80
2022/09/05 00:41:29;;;;;;;3.20;3.00;;;;;;;18.40;59.08;101181.19;4966772;29;20240;-80
2022/09/05 00:43:57;;;;;;;3.40;3.20;;;;;;;18.40;59.12;101171.47;4979283;28;20232;-80
2022/09/05 00:46:27;;;;;;;3.00;2.80;;;;;;;18.36;59.43;101172.53;4985248;28;20208;-80
2022/09/05 00:49:02;;;;;;;3.20;3.00;;;;;;;18.38;59.22;101178.59;4986748;28;20611;-80
2022/09/05 00:51:34;;;;;;;3.80;2.97;;;;;;;18.34;58.78;101189.38;4986230;28;20251;-80
2022/09/05 00:54:36;;;;;;;2.97;2.77;;;;;;;18.32;58.57;101209.72;4986433;28;20235;-80
2022/09/05 00:57:19;;;;;;;3.30;3.10;;;;;;;18.27;58.89;101215.16;4961163;28;20266;-80
2022/09/05 01:00:06;;;;;;;3.10;2.90;;;;;;;18.29;58.62;101212.47;4987330;28;20208;-81
2022/09/05 01:02:55;;;;;;;3.33;3.03;;;;;;;18.25;58.79;101209.06;4986483;28;20236;-80
2022/09/05 01:05:37;;;;;;;3.23;2.93;;;;;;;18.30;58.59;101208.91;4985873;28;20264;-81
2022/09/05 01:08:19;;;;;;;4.07;3.67;;;;;;;18.20;59.57;101197.84;4986207;28;20242;-80
2022/09/05 01:10:52;;;;;;;2.47;2.37;;;;;;;18.19;59.12;101191.66;4986693;28;20216;-81
2022/09/05 01:13:33;;;;;;;3.17;2.77;;;;;;;18.18;59.07;101200.53;4986630;28;20646;-80
2022/09/05 01:16:05;;;;;;;3.10;2.80;;;;;;;18.12;59.33;101195.50;4979485;28;20646;-80
2022/09/05 01:18:50;;;;;;;2.83;2.70;;;;;;;18.13;59.53;101191.06;4986658;28;20204;-81
2022/09/05 01:21:47;;;;;;;3.27;3.07;;;;;;;18.12;59.69;101192.84;4986820;28;20208;-82
2022/09/05 01:24:31;;;;;;;2.80;2.70;;;;;;;18.13;59.52;101191.06;4985645;28;20324;-81
2022/09/05 01:27:32;;;;;;;3.57;2.90;;;;;;;18.09;59.79;101187.66;4985512;28;20212;-82
2022/09/05 01:30:06;;;;;;;2.80;2.60;;;;;;;18.08;59.69;101188.59;4985606;28;20204;-80
2022/09/05 01:32:41;;;;;;;3.60;3.30;;;;;;;18.09;59.72;101189.47;4985879;28;20212;-80
2022/09/05 01:35:36;;;;;;;2.57;2.47;;;;;;;18.05;60.30;101168.41;4985628;28;20228;-80
2022/09/05 01:38:10;;;;;;;3.30;3.00;;;;;;;17.97;60.61;101162.56;4985968;28;20282;-79
2022/09/05 01:40:47;;;;;;;3.23;3.03;;;;;;;17.93;60.21;101166.25;4985709;28;20214;-80
2022/09/05 01:43:24;;;;;;;2.80;2.60;;;;;;;17.89;60.80;101156.72;4985536;28;20259;-80
2022/09/05 01:45:54;;;;;;;3.70;2.90;;;;;;;17.79;61.12;101142.97;4978004;28;20204;-81
2022/09/05 01:48:31;;;;;;;3.27;2.97;;;;;;;17.73;61.45;101122.09;4985990;28;20271;-82
2022/09/05 01:51:12;;;;;;;2.90;2.70;;;;;;;17.66;61.64;101112.69;4985410;28;20208;-81
2022/09/05 01:53:46;;;;;;;3.10;2.90;;;;;;;17.66;61.06;101128.53;4985593;28;20788;-82
2022/09/05 01:56:31;;;;;;;3.40;3.20;;;;;;;17.73;60.59;101152.91;4985885;28;20208;-81
2022/09/05 01:59:11;;;;;;;3.13;2.93;;;;;;;17.80;60.23;101162.31;4985418;28;20215;-80
2022/09/05 02:01:55;;;;;;;3.30;3.00;;;;;;;17.72;60.27;101167.03;4986485;28;20294;-80
2022/09/05 02:04:43;;;;;;;3.20;3.00;;;;;;;17.73;60.41;101161.69;4986236;28;20647;-80
2022/09/05 02:07:23;;;;;;;3.07;2.87;;;;;;;17.77;60.26;101173.88;4986424;28;20212;-81
2022/09/05 02:10:12;;;;;;;3.73;3.30;;;;;;;17.66;60.82;101174.28;4986083;28;20212;-80
2022/09/05 02:12:46;;;;;;;3.00;2.80;;;;;;;17.60;60.71;101152.50;4985278;28;20267;-80
2022/09/05 02:15:18;;;;;;;3.10;2.90;;;;;;;17.63;60.80;101153.25;4985299;28;20663;-80
2022/09/05 02:17:51;;;;;;;3.00;2.80;;;;;;;17.67;60.66;101169.84;4985694;28;20212;-81
2022/09/05 02:20:23;;;;;;;3.73;3.37;;;;;;;17.65;60.80;101161.13;4985576;28;20302;-80
2022/09/05 02:22:59;;;;;;;3.50;3.20;;;;;;;17.66;60.55;101163.72;4985947;28;20267;-80
2022/09/05 02:25:30;;;;;;;2.80;2.60;;;;;;;17.65;60.88;101158.47;4986088;28;20203;-81
2022/09/05 02:28:05;;;;;;;3.23;3.00;;;;;;;17.65;60.55;101167.25;4986424;28;20267;-81
2022/09/05 02:30:41;;;;;;;3.30;3.00;;;;;;;17.59;61.11;101167.47;4986528;28;20211;-80
2022/09/05 02:33:15;;;;;;;3.03;2.83;;;;;;;17.56;61.51;101153.53;4986587;28;20188;-80
2022/09/05 02:35:47;;;;;;;3.13;2.83;;;;;;;17.54;61.93;101134.25;4985608;28;20211;-80
2022/09/05 02:38:19;;;;;;;4.10;3.30;;;;;;;17.43;62.30;101106.47;4985562;28;20204;-80
2022/09/05 02:40:50;;;;;;;3.23;3.03;;;;;;;17.40;62.34;101101.31;4985951;28;20212;-80
2022/09/05 02:43:27;;;;;;;3.40;3.10;;;;;;;17.40;62.61;101095.16;4984742;28;20279;-80
2022/09/05 02:46:02;;;;;;;3.40;3.20;;;;;;;17.32;63.25;101068.19;4979077;28;20208;-80
2022/09/05 02:48:37;;;;;;;3.77;3.10;;;;;;;17.22;63.51;101058.00;4984895;28;20215;-81
2022/09/05 02:51:14;;;;;;;3.73;3.43;;;;;;;17.20;63.66;101051.03;4985125;28;20227;-80
2022/09/05 02:53:46;;;;;;;3.83;3.10;;;;;;;17.16;63.75;101044.16;4984491;28;20259;-80
2022/09/05 02:56:31;;;;;;;3.90;3.57;;;;;;;17.18;63.52;101051.09;4984914;28;20212;-80
2022/09/05 02:59:08;;;;;;;3.17;2.87;;;;;;;17.17;63.69;101046.75;4985554;28;20215;-81
2022/09/05 03:01:55;;;;;;;3.27;3.03;;;;;;;17.17;63.65;101048.53;4985178;28;20212;-81
2022/09/05 03:04:39;;;;;;;3.67;3.43;;;;;;;17.03;64.60;101020.00;4984451;28;20227;-80
2022/09/05 03:07:17;;;;;;;3.93;3.43;;;;;;;16.95;64.98;101009.75;4984626;28;20208;-81
2022/09/05 03:10:03;;;;;;;3.40;3.20;;;;;;;17.01;64.52;101008.66;4989383;28;20266;-81
2022/09/05 03:13:06;;;;;;;3.33;3.13;;;;;;;16.91;65.67;100988.78;4991209;28;20208;-80
2022/09/05 03:16:22;;;;;;;3.47;3.27;;;;;;;16.86;65.92;100958.16;4990915;28;20207;-80
2022/09/05 03:19:18;;;;;;;3.50;3.20;;;;;;;16.85;66.19;100960.88;4991296;28;20204;-80
2022/09/05 03:22:14;;;;;;;4.83;3.57;;;;;;;16.86;66.41;100947.63;4990241;28;20208;-80
2022/09/05 03:25:15;;;;;;;3.30;3.13;;;;;;;16.87;65.96;100957.28;4987927;28;20286;-80
2022/09/05 03:28:09;;;;;;;3.90;3.60;;;;;;;16.80;66.30;100961.00;4958662;28;20283;-80
2022/09/05 03:30:48;;;;;;;3.60;3.40;;;;;;;16.84;65.70;100969.69;4992113;28;20219;-82
2022/09/05 03:33:45;;;;;;;3.57;3.37;;;;;;;16.84;66.02;100970.56;4993047;28;20208;-81
2022/09/05 03:36:34;;;;;;;3.90;3.70;;;;;;;16.81;65.99;100975.06;4993872;28;20276;-80
2022/09/05 03:40:03;;;;;;;3.87;3.67;;;;;;;16.83;66.04;100973.28;4995218;28;20212;-81
2022/09/05 03:42:47;;;;;;;3.60;3.30;;;;;;;16.74;66.70;100966.50;4994984;28;20215;-82
2022/09/05 03:45:31;;;;;;;3.87;3.57;;;;;;;16.65;66.96;100957.16;4985307;28;20228;-80
2022/09/05 03:48:16;;;;;;;3.97;3.67;;;;;;;16.66;66.64;100963.28;4985887;28;20320;-80
2022/09/05 03:50:56;;;;;;;4.47;4.03;;;;;;;16.64;66.63;100975.66;4985683;28;20212;-81
2022/09/05 03:53:52;;;;;;;3.90;3.70;;;;;;;16.65;67.24;100980.03;4985284;28;20235;-81
2022/09/05 03:56:30;;;;;;;4.47;4.07;;;;;;;16.69;66.88;100971.09;4984538;28;20208;-81
2022/09/05 03:59:24;;;;;;;3.97;3.67;;;;;;;16.75;66.37;100997.25;4985569;28;20212;-79
2022/09/05 04:02:01;;;;;;;3.73;3.53;;;;;;;16.77;66.35;100995.41;4985452;28;20682;-81
2022/09/05 04:04:33;;;;;;;4.67;3.70;;;;;;;16.70;66.80;100987.78;4985180;28;20645;-81
2022/09/05 04:07:05;;;;;;;4.27;3.97;;;;;;;16.66;66.75;101000.19;4985357;28;20208;-80
2022/09/05 04:09:39;;;;;;;4.27;3.83;;;;;;;16.71;66.22;101000.03;4984661;28;20208;-81
2022/09/05 04:12:15;;;;;;;5.83;4.07;;;;;;;16.72;66.42;101014.94;4982918;28;20219;-81
2022/09/05 04:14:48;;;;;;;4.77;4.10;;;;;;;16.71;66.42;101018.47;4981645;28;20239;-81
2022/09/05 04:17:24;;;;;;;4.30;3.93;;;;;;;16.68;66.36;101022.09;4980923;28;20243;-80
2022/09/05 04:19:55;;;;;;;4.30;4.00;;;;;;;16.73;66.02;101033.34;4982323;28;20208;-81
2022/09/05 04:22:28;;;;;;;5.10;4.23;;;;;;;16.79;65.56;101048.09;4984169;28;20258;-80
2022/09/05 04:25:04;;;;;;;10.70;4.50;;;;;;;16.88;65.08;101067.09;4983256;28;20224;-81
2022/09/05 04:27:40;;;;;;;5.60;4.87;;;;;;;16.94;64.78;101089.75;4983576;28;20216;-79
2022/09/05 04:30:25;;;;;;;5.20;4.43;;;;;;;16.98;64.75;101104.56;4984414;28;20204;-80
2022/09/05 04:32:59;;;;;;;6.30;4.47;;;;;;;16.94;64.85;101096.81;4983101;28;20634;-80
2022/09/05 04:35:32;;;;;;;4.20;3.90;;;;;;;16.87;64.98;101102.31;4982507;28;20267;-80
2022/09/05 04:38:10;;;;;;;5.20;3.80;;;;;;;16.93;64.49;101100.38;4981810;28;20636;-81
2022/09/05 04:40:41;;;;;;;5.87;3.60;;;;;;;16.92;64.18;101117.09;4982829;28;20248;-81
2022/09/05 04:43:12;;;;;;;4.20;3.80;;;;;;;16.88;64.34;101114.56;4979767;28;20682;-81
2022/09/05 04:45:43;;;;;;;3.90;3.60;;;;;;;16.93;63.90;101122.34;4981419;28;20674;-81
2022/09/05 04:48:15;;;;;;;3.83;3.33;;;;;;;16.94;63.96;101131.94;4984340;28;20216;-81
2022/09/05 04:51:05;;;;;;;3.80;3.50;;;;;;;16.93;64.04;101138.16;4984291;28;20208;-80
2022/09/05 04:53:51;;;;;;;4.20;3.60;;;;;;;16.90;64.07;101135.59;4984412;28;20377;-80
2022/09/05 04:56:24;;;;;;;4.30;4.00;;;;;;;16.91;64.14;101136.47;4983453;28;20259;-80
2022/09/05 04:58:57;;;;;;;3.70;3.40;;;;;;;16.93;63.87;101151.34;4982018;28;20216;-81
2022/09/05 05:01:30;;;;;;;3.40;3.13;;;;;;;16.96;63.78;101155.66;4982180;28;20583;-80
2022/09/05 05:04:05;;;;;;;3.90;3.60;;;;;;;16.95;63.76;101169.75;4980606;28;20322;-81
2022/09/05 05:06:38;;;;;;;3.40;3.20;;;;;;;16.92;64.14;101160.16;4980995;28;20212;-81
2022/09/05 05:09:14;;;;;;;3.90;3.60;;;;;;;16.99;64.18;101158.19;4981263;28;20200;-81
2022/09/05 05:11:48;;;;;;;3.60;3.37;;;;;;;16.98;63.92;101165.22;4977574;28;20212;-81
2022/09/05 05:14:20;;;;;;;3.60;3.30;;;;;;;17.02;64.11;101163.34;4976441;28;20227;-80
2022/09/05 05:16:52;;;;;;;3.67;3.37;;;;;;;16.99;63.80;101174.88;4976514;28;20216;-80
2022/09/05 05:19:24;;;;;;;3.70;3.40;;;;;;;17.03;64.00;101162.44;4978933;28;20247;-81
2022/09/05 05:21:53;;;;;;;3.90;3.60;;;;;;;17.00;64.05;101170.44;4976893;28;20729;-81
2022/09/05 05:24:22;;;;;;;3.97;3.67;;;;;;;17.00;64.02;101173.94;4977466;28;20236;-81
2022/09/05 05:26:58;;;;;;;4.03;3.73;;;;;;;16.96;64.04;101179.38;4977067;28;20275;-80
2022/09/05 05:29:31;;;;;;;4.00;3.70;;;;;;;16.98;64.16;101172.28;4977348;28;20192;-79
2022/09/05 05:32:01;;;;;;;3.50;3.30;;;;;;;16.97;64.08;101174.06;4977004;28;20224;-81
2022/09/05 05:34:31;;;;;;;4.43;4.13;;;;;;;16.99;64.24;101172.22;4977333;28;20780;-81
2022/09/05 05:37:02;;;;;;;3.47;3.20;;;;;;;17.04;64.22;101172.06;4977580;28;20208;-80
2022/09/05 05:39:30;;;;;;;4.60;4.20;;;;;;;17.04;64.66;101164.16;4977327;28;20222;-79
2022/09/05 05:42:00;;;;;;;3.90;3.63;;;;;;;17.05;64.37;101156.19;4976210;28;20271;-82
2022/09/05 05:44:30;;;;;;;3.73;3.43;;;;;;;17.11;64.66;101156.91;4983797;28;20228;-80
2022/09/05 05:47:01;;;;;;;3.97;3.67;;;;;;;17.11;65.13;101147.22;4979437;28;20199;-79
2022/09/05 05:49:40;;;;;;;5.70;3.53;;;;;;;17.20;64.54;101152.16;4986590;28;20203;-78
2022/09/05 05:55:01;;;;;;;4.80;4.03;;;;;;;17.29;64.48;101169.44;5141734;27;20544;-78
2022/09/05 05:57:39;;;;;;;5.90;3.73;;;;;;;17.39;64.45;101186.69;5141419;27;20198;-79
2022/09/05 06:00:17;;;;;;;4.17;3.87;;;;;;;17.46;64.08;101184.66;5140833;27;20202;-78
2022/09/05 06:03:44;;;;;;;6.33;4.13;;;;;;;17.54;64.11;101195.84;5134891;27;20223;-81
2022/09/05 06:06:22;;;;;;;4.43;4.07;;;;;;;17.59;64.07;101191.25;5119663;28;20207;-79
2022/09/05 06:09:26;;;;;;;4.63;3.80;;;;;;;17.69;64.17;101191.78;5120525;28;20199;-82
2022/09/05 06:12:15;;;;;;;4.10;3.50;;;;;;;17.75;63.94;101202.09;5121148;28;20611;-82
2022/09/05 06:15:11;;;;;;;4.37;3.97;;;;;;;17.86;63.44;101217.59;5115745;28;20227;-79
2022/09/05 06:18:07;;;;;;;3.70;3.40;;;;;;;17.89;63.83;101211.34;5118188;28;20191;-82
2022/09/05 06:21:16;;;;;;;4.40;4.10;;;;;;;17.95;63.72;101217.25;5123634;28;20195;-81
2022/09/05 06:24:04;;;;;;;4.63;4.23;;;;;;;17.98;63.55;101216.28;5062511;28;20209;-80
2022/09/05 06:27:01;;;;;;;4.33;4.00;;;;;;;17.98;63.77;101209.22;5120534;28;20202;-81
2022/09/05 06:29:37;;;;;;;4.40;3.93;;;;;;;17.98;63.97;101196.00;5120030;28;20195;-80
2022/09/05 06:32:13;;;;;;;6.53;3.87;;;;;;;18.06;63.84;101191.28;5119929;28;20256;-81
2022/09/05 06:35:01;;;;;;;4.23;3.93;;;;;;;18.09;64.27;101187.66;5117868;28;20219;-81
2022/09/05 06:37:39;;;;;;;4.40;4.03;;;;;;;18.13;64.19;101188.41;5119436;28;20203;-81
2022/09/05 06:40:37;;;;;;;4.80;4.50;;;;;;;18.16;64.44;101183.88;5118673;28;20754;-82
2022/09/05 06:43:31;;;;;;;4.83;4.33;;;;;;;18.23;64.10;101187.13;5114221;27;20234;-81
2022/09/05 06:50:25;;;;;;;;;;;;;;;;;;;;;
2022/09/05 06:53:36;;;;;;;5.23;4.83;;;;;;;18.38;64.81;101183.03;5076530;22;20227;-83
2022/09/05 06:56:24;;;;;;;4.97;4.57;;;;;;;18.44;65.18;101164.28;5035604;28;20201;-84
2022/09/05 06:59:14;;;;;;;5.53;5.00;;;;;;;18.49;64.56;101178.16;5052162;28;20209;-84
2022/09/05 07:01:50;;;;;;;5.30;4.90;;;;;;;18.60;64.66;101189.19;5050444;28;20284;-84
2022/09/05 07:04:32;;;;;;;5.20;4.90;;;;;;;18.65;64.78;101187.22;5049201;28;20244;-84
2022/09/05 07:07:13;;;;;;;8.77;5.20;;;;;;;18.70;64.69;101172.94;5036500;28;20240;-82
2022/09/05 07:09:57;;;;;;;4.80;4.50;;;;;;;18.78;64.96;101169.06;5038772;28;20409;-82
2022/09/05 07:12:27;;;;;;;4.77;4.47;;;;;;;18.85;64.74;101173.22;5031274;28;20734;-82
2022/09/05 07:15:07;;;;;;;5.67;5.27;;;;;;;18.98;64.11;101192.06;5030999;28;20230;-83
2022/09/05 07:17:47;;;;;;;5.50;5.10;;;;;;;19.01;64.39;101202.53;5038765;28;20212;-78
2022/09/05 07:20:22;;;;;;;5.63;4.77;;;;;;;19.14;64.30;101202.84;5039139;28;20218;-78
2022/09/05 07:23:04;;;;;;;5.87;5.47;;;;;;;19.30;64.66;101218.09;5026985;28;20202;-78
2022/09/05 07:25:32;;;;;;;4.77;4.37;;;;;;;19.46;65.72;101163.53;5035605;28;20213;-77
2022/09/05 07:28:04;;;;;;;5.47;5.10;;;;;;;19.57;63.39;101218.69;5036778;28;20209;-78
2022/09/05 07:30:32;;;;;;;4.90;4.57;;;;;;;19.66;62.97;101271.25;5019157;28;20669;-77
2022/09/05 07:33:02;;;;;;;5.37;5.07;;;;;;;19.72;62.63;101294.00;5016706;28;20210;-77
2022/09/05 07:35:32;;;;;;;5.30;5.00;;;;;;;19.77;62.32;101306.13;5034865;28;20276;-77
2022/09/05 07:38:08;;;;;;;5.13;4.73;;;;;;;19.78;63.67;101273.41;5036408;28;20251;-78
2022/09/05 07:40:42;;;;;;;4.93;4.50;;;;;;;19.89;62.36;101291.47;5036126;28;20682;-77
2022/09/05 07:43:14;;;;;;;5.33;4.77;;;;;;;20.02;64.21;101250.25;5035456;28;20206;-77
2022/09/05 07:45:46;;;;;;;4.90;4.60;;;;;;;20.11;61.99;101278.13;5023885;28;20207;-77
2022/09/05 07:48:19;;;;;;;5.30;5.00;;;;;;;20.20;61.97;101298.06;5014856;28;20265;-77
2022/09/05 07:50:51;;;;;;;5.23;4.83;;;;;;;20.27;62.21;101318.03;5014763;28;20264;-77
2022/09/05 07:53:20;;;;;;;6.43;4.43;;;;;;;20.32;64.14;101249.75;5014575;28;20241;-77
2022/09/05 07:55:52;;;;;;;4.80;4.47;;;;;;;20.45;62.35;101265.94;5016488;28;20203;-78
2022/09/05 07:58:21;;;;;;;5.57;4.40;;;;;;;20.55;60.27;101353.91;5018031;28;20227;-78
2022/09/05 08:00:52;;;;;;;4.97;4.67;;;;;;;20.63;59.87;101410.16;5024093;28;20256;-78
2022/09/05 08:03:24;;;;;;;4.57;4.27;;;;;;;20.71;59.90;101418.63;5034361;28;20206;-78
2022/09/05 08:05:54;;;;;;;4.80;4.40;;;;;;;20.79;59.63;101412.97;5031857;28;20260;-78
2022/09/05 08:08:27;;;;;;;4.43;4.13;;;;;;;20.83;60.15;101394.19;5034926;28;20264;-78
2022/09/05 08:10:57;;;;;;;4.90;4.60;;;;;;;20.88;58.93;101412.56;5034011;28;20210;-78
2022/09/05 08:13:29;;;;;;;5.00;4.53;;;;;;;20.90;58.78;101437.22;5034187;28;20769;-77
2022/09/05 08:15:58;;;;;;;4.73;4.43;;;;;;;20.92;58.58;101442.47;5020143;28;20210;-78
2022/09/05 08:18:35;;;;;;;4.63;4.23;;;;;;;20.89;59.10;101422.25;5013663;28;20215;-78
2022/09/05 08:21:09;;;;;;;5.07;4.73;;;;;;;20.89;58.79;101432.00;5014311;28;20268;-79
2022/09/05 08:23:49;;;;;;;4.93;4.50;;;;;;;20.93;58.85;101436.22;5014429;28;20229;-78
2022/09/05 08:26:28;;;;;;;6.77;5.33;;;;;;;20.90;60.16;101407.19;5013863;28;20672;-78
2022/09/05 08:29:03;;;;;;;4.70;4.27;;;;;;;20.95;59.19;101398.06;5014697;28;20249;-78
2022/09/05 08:31:38;;;;;;;5.00;4.70;;;;;;;21.00;59.17;101411.97;5014127;28;20634;-78
2022/09/05 08:34:10;;;;;;;5.30;4.80;;;;;;;21.05;59.14;101421.50;5015033;28;20230;-78
2022/09/05 08:36:40;;;;;;;5.53;5.10;;;;;;;21.09;59.92;101423.09;5023236;28;20201;-77
2022/09/05 08:39:10;;;;;;;5.23;4.73;;;;;;;21.10;60.22;101369.91;5034545;28;20202;-78
2022/09/05 08:41:51;;;;;;;4.67;4.37;;;;;;;21.11;59.63;101362.81;5031369;28;20304;-78
2022/09/05 08:44:23;;;;;;;5.53;4.67;;;;;;;21.13;59.15;101390.16;5024003;28;20223;-77
2022/09/05 08:46:54;;;;;;;8.07;5.50;;;;;;;21.15;59.33;101415.72;5014917;28;20194;-77
2022/09/05 08:49:38;;;;;;;5.17;4.67;;;;;;;21.22;58.70;101411.81;5015176;28;20261;-76
2022/09/05 08:52:10;;;;;;;8.17;5.23;;;;;;;21.25;59.32;101412.59;5014203;28;20234;-77
2022/09/05 08:54:52;;;;;;;5.40;4.97;;;;;;;21.30;59.92;101368.94;5013454;28;20701;-77
2022/09/05 08:57:41;;;;;;;5.47;5.07;;;;;;;21.32;60.46;101308.66;5014568;28;20672;-77
2022/09/05 09:00:10;;;;;;;5.90;5.37;;;;;;;21.39;58.56;101394.22;5014690;28;20281;-76
2022/09/05 09:03:04;;;;;;;5.27;4.77;;;;;;;21.42;58.12;101426.78;5015028;28;20671;-77
2022/09/05 09:05:49;;;;;;;5.33;4.83;;;;;;;21.41;58.53;101429.53;5014956;28;20204;-77
2022/09/05 09:08:19;;;;;;;5.67;5.27;;;;;;;21.42;59.45;101410.00;5014320;28;20676;-77
2022/09/05 09:10:56;;;;;;;5.63;5.13;;;;;;;21.51;61.62;101326.38;5014648;28;20211;-77
2022/09/05 09:13:37;;;;;;;4.67;4.37;;;;;;;21.64;59.24;101300.03;5022487;28;20236;-77
2022/09/05 09:16:09;;;;;;;5.47;4.97;;;;;;;21.73;58.72;101369.50;5019909;28;20711;-77
2022/09/05 09:18:58;;;;;;;5.43;4.90;;;;;;;21.83;58.11;101388.50;5014464;28;20207;-77
2022/09/05 09:21:34;;;;;;;5.30;4.90;;;;;;;21.91;58.01;101415.56;5014220;28;20689;-77
2022/09/05 09:24:12;;;;;;;5.97;5.40;;;;;;;21.98;57.43;101422.28;5013891;28;20276;-77
2022/09/05 09:26:47;;;;;;;6.33;5.17;;;;;;;22.00;57.81;101447.00;5014025;28;20230;-77
2022/09/05 09:29:17;;;;;;;5.30;4.80;;;;;;;22.02;58.00;101422.97;5014642;28;20212;-78
2022/09/05 09:32:01;;;;;;;5.50;5.10;;;;;;;22.09;57.13;101437.69;5014780;28;20211;-78
2022/09/05 09:34:53;;;;;;;4.97;4.57;;;;;;;22.06;57.14;101448.50;5015242;28;20234;-79
2022/09/05 09:37:46;;;;;;;6.10;5.60;;;;;;;22.12;57.66;101434.88;5015004;28;20250;-78
2022/09/05 09:40:27;;;;;;;6.17;5.70;;;;;;;22.17;59.16;101379.63;5014810;28;20218;-78
2022/09/05 09:43:01;;;;;;;5.60;5.20;;;;;;;22.32;58.16;101393.97;5020273;28;20210;-78
2022/09/05 09:45:47;;;;;;;5.87;5.47;;;;;;;22.49;56.89;101414.34;5024987;28;20260;-78
2022/09/05 09:48:35;;;;;;;6.37;5.77;;;;;;;22.58;55.93;101451.13;5014565;28;20206;-78
2022/09/05 09:51:18;;;;;;;5.50;5.10;;;;;;;22.64;56.17;101478.34;5014796;28;20623;-78
2022/09/05 09:54:05;;;;;;;6.00;5.50;;;;;;;22.68;56.34;101458.63;5014018;28;20242;-78
2022/09/05 09:57:02;;;;;;;5.90;5.40;;;;;;;22.72;55.80;101457.50;5015456;28;20280;-78
2022/09/05 10:00:04;;;;;;;6.03;5.50;;;;;;;22.77;59.52;101371.13;5014906;28;20206;-78
2022/09/05 10:03:03;;;;;;;5.77;5.27;;;;;;;22.79;58.21;101355.94;5014705;28;20295;-78
2022/09/05 10:05:52;;;;;;;7.70;4.97;;;;;;;22.88;57.79;101383.84;4988509;28;20213;-78
2022/09/05 10:08:33;;;;;;;5.40;5.00;;;;;;;22.97;56.75;101388.66;5015887;28;20729;-78
2022/09/05 10:11:17;;;;;;;5.20;4.90;;;;;;;23.05;57.11;101417.53;5016045;28;20208;-78
2022/09/05 10:14:20;;;;;;;6.90;6.40;;;;;;;23.15;56.25;101418.78;5026689;28;20233;-78
2022/09/05 10:17:04;;;;;;;5.90;5.50;;;;;;;23.24;55.17;101469.81;5035425;28;20264;-79
2022/09/05 10:20:04;;;;;;;5.50;5.20;;;;;;;23.34;55.41;101476.34;5035360;28;20212;-79
2022/09/05 10:22:51;;;;;;;4.97;4.57;;;;;;;23.38;56.92;101470.72;5035776;28;20214;-79
2022/09/05 10:25:30;;;;;;;5.70;5.30;;;;;;;23.46;56.55;101427.66;5032579;28;20218;-78
2022/09/05 10:28:04;;;;;;;5.80;5.33;;;;;;;23.56;54.83;101462.66;5032893;28;20202;-77
2022/09/05 10:30:43;;;;;;;5.77;5.47;;;;;;;23.64;54.56;101486.19;5033033;28;20259;-77
2022/09/05 10:33:29;;;;;;;5.93;5.43;;;;;;;23.67;53.88;101507.38;5032957;28;20282;-78
2022/09/05 10:36:02;;;;;;;5.73;5.30;;;;;;;23.67;54.51;101516.22;5034564;28;20222;-79
2022/09/05 10:38:39;;;;;;;5.07;4.67;;;;;;;23.70;54.69;101470.72;5033407;28;20899;-78
2022/09/05 10:41:10;;;;;;;5.53;5.17;;;;;;;23.77;54.44;101477.44;5037905;28;20206;-78
2022/09/05 10:43:48;;;;;;;5.50;5.10;;;;;;;23.82;54.08;101489.66;5037577;28;20640;-78
2022/09/05 10:46:26;;;;;;;6.50;5.80;;;;;;;23.88;53.48;101494.63;5022346;28;20227;-79
2022/09/05 10:48:56;;;;;;;5.40;4.90;;;;;;;23.91;53.49;101497.13;5018860;28;20218;-78
2022/09/05 10:51:29;;;;;;;5.53;5.17;;;;;;;23.97;53.19;101515.44;5017624;28;20341;-79
2022/09/05 10:54:10;;;;;;;6.30;5.80;;;;;;;24.06;53.86;101482.03;5017095;28;20238;-79
2022/09/05 10:56:42;;;;;;;5.57;5.07;;;;;;;24.15;52.94;101489.50;5016803;28;20217;-79
2022/09/05 10:59:19;;;;;;;5.23;4.73;;;;;;;24.26;52.82;101483.50;5017253;28;20214;-78
2022/09/05 11:01:58;;;;;;;5.57;5.07;;;;;;;24.49;52.57;101511.47;5023355;28;20205;-79
2022/09/05 11:04:43;;;;;;;5.37;4.97;;;;;;;24.70;52.93;101488.84;5036353;28;20256;-79
2022/09/05 11:07:13;;;;;;;4.90;4.60;;;;;;;24.77;51.50;101543.56;5035051;28;20202;-79
2022/09/05 11:09:58;;;;;;;5.27;4.87;;;;;;;24.86;50.63;101574.22;5037512;28;20668;-79
2022/09/05 11:12:49;;;;;;;12.40;5.10;;;;;;;24.92;50.33;101589.88;5034462;28;20197;-78
2022/09/05 11:15:28;;;;;;;5.50;5.00;;;;;;;24.98;50.07;101607.34;5024289;28;20279;-79
2022/09/05 11:18:00;;;;;;;5.20;4.87;;;;;;;25.03;50.78;101583.00;5034484;28;20261;-79
2022/09/05 11:20:57;;;;;;;5.43;5.13;;;;;;;25.15;51.06;101555.53;5033139;28;20680;-79
2022/09/05 11:23:32;;;;;;;6.33;5.60;;;;;;;25.24;49.62;101589.72;5032487;28;20217;-79
2022/09/05 11:26:03;;;;;;;5.10;4.57;;;;;;;25.34;49.32;101606.91;5035085;28;20198;-78
2022/09/05 11:28:36;;;;;;;5.67;5.27;;;;;;;25.49;50.02;101580.16;5032958;28;20552;-79
2022/09/05 11:31:09;;;;;;;4.90;4.47;;;;;;;25.99;48.44;101629.59;5035217;28;20757;-79
2022/09/05 11:33:53;;;;;;;4.70;4.40;;;;;;;27.53;45.11;101723.72;5034748;28;20237;-79
2022/09/05 11:36:26;;;;;;;5.00;4.70;;;;;;;29.10;42.17;101885.22;5033663;28;20276;-81
2022/09/05 11:39:02;;;;;;;5.67;5.17;;;;;;;30.36;38.95;102006.75;5034582;28;20672;-81
2022/09/05 11:41:55;;;;;;;5.20;4.77;;;;;;;31.80;36.41;102094.13;5032703;28;20733;-82
2022/09/05 11:44:29;;;;;;;5.77;5.37;;;;;;;33.19;34.78;102199.53;5031506;28;20284;-81
2022/09/05 11:47:36;;;;;;;4.90;4.40;;;;;;;34.38;32.11;102254.00;5034626;28;20197;-82
2022/09/05 11:50:48;;;;;;;5.13;4.70;;;;;;;35.20;31.20;102301.59;5036343;28;20202;-83
2022/09/05 11:53:52;;;;;;;5.13;4.80;;;;;;;36.05;29.67;102307.03;5035475;28;20660;-82
2022/09/05 11:56:50;;;;;;;5.40;4.90;;;;;;;36.75;28.04;102339.97;5030558;28;20217;-82
2022/09/05 11:59:33;;;;;;;4.80;4.47;;;;;;;37.02;28.09;102328.13;5035101;28;20202;-82
2022/09/05 12:02:24;;;;;;;4.85;4.50;;;;;;;37.74;27.24;102323.41;5034783;28;20206;-83
2022/09/05 12:05:02;;;;;;;4.90;4.50;;;;;;;38.23;26.21;102358.22;5036575;28;20221;-80
2022/09/05 12:07:51;;;;;;;4.40;4.20;;;;;;;38.81;25.48;102336.53;5035581;28;20194;-80
2022/09/05 12:10:34;;;;;;;4.55;4.35;;;;;;;39.08;24.69;102366.25;5034357;28;20245;-81
2022/09/05 12:13:19;;;;;;;4.70;4.40;;;;;;;39.26;24.22;102354.31;5034770;28;20198;-81
2022/09/05 12:15:46;;;;;;;4.72;4.43;;;;;;;39.15;24.67;102317.28;5032105;28;20226;-81
2022/09/05 12:18:26;;;;;;;4.95;4.55;;;;;;;39.26;23.81;102321.50;5034826;28;20194;-81
2022/09/05 12:21:01;;;;;;;5.00;4.50;;;;;;;38.84;24.90;102289.78;5033925;28;20233;-80
2022/09/05 12:23:49;;;;;;;4.03;3.83;;;;;;;38.42;25.01;102252.56;5035411;28;20268;-80
2022/09/05 12:26:23;;;;;;;4.03;3.83;;;;;;;38.22;25.21;102251.97;5034692;28;20252;-80
2022/09/05 12:28:56;;;;;;;4.80;4.40;;;;;;;38.21;25.48;102228.47;5030297;28;20198;-80
2022/09/05 12:31:30;;;;;;;5.70;4.88;;;;;;;38.16;25.70;102207.16;5034727;28;20252;-80
2022/09/05 12:33:59;;;;;;;5.15;4.85;;;;;;;38.03;26.37;102183.06;5035596;28;20233;-78